Time;durP1;ratioP1;P1;durP2;ratioP2;P2;SDS_P1;SDS_P2;PMS_P1;PMS_P2;Temp;Humidity;BMP_temperature;BMP_pressure;BME280_temperature;BME280_humidity;BME280_pressure;Samples;Min_cycle;Max_cycle;Signal;HPM_P1;HPM_P2
2022/03/18 08:44:30;;;;;;;20.95;12.88;;;;;;;6.24;40.89;102805.44;5319293;28;21184;-87
2022/03/18 08:47:33;;;;;;;21.27;12.93;;;;;;;6.40;41.04;102810.72;5304849;28;35437;-88
2022/03/18 08:50:36;;;;;;;23.38;12.93;;;;;;;6.33;41.44;102812.06;5299259;33;35072;-86
2022/03/18 08:53:40;;;;;;;22.77;12.10;;;;;;;6.43;40.53;102807.88;5291804;33;34629;-87
2022/03/18 08:56:42;;;;;;;24.67;13.35;;;;;;;6.63;40.30;102808.50;5316008;28;33516;-87
2022/03/18 08:59:45;;;;;;;25.48;14.43;;;;;;;6.44;40.99;102808.75;5292076;33;35060;-88
2022/03/18 09:02:48;;;;;;;23.33;14.15;;;;;;;6.46;41.01;102813.03;5301259;33;34590;-87
2022/03/18 09:05:52;;;;;;;27.62;13.85;;;;;;;6.62;41.35;102821.03;5289237;33;34441;-87
2022/03/18 09:09:02;;;;;;;22.62;13.00;;;;;;;6.81;40.93;102820.78;5353340;28;34778;-86
2022/03/18 09:12:07;;;;;;;20.45;11.95;;;;;;;6.62;41.48;102825.53;5303435;33;34267;-86
2022/03/18 09:15:10;;;;;;;24.52;14.38;;;;;;;6.67;41.55;102828.78;5303425;33;35506;-85
2022/03/18 09:18:14;;;;;;;24.45;13.02;;;;;;;6.77;40.51;102833.50;5301038;33;34500;-86
2022/03/18 09:21:16;;;;;;;25.73;13.68;;;;;;;6.80;39.60;102837.81;5323091;28;34926;-86
2022/03/18 09:24:20;;;;;;;24.58;15.18;;;;;;;6.80;41.58;102835.12;5293504;33;34911;-86
2022/03/18 09:27:23;;;;;;;26.00;15.02;;;;;;;6.99;43.14;102830.37;5293195;33;34106;-86
2022/03/18 09:30:26;;;;;;;26.27;13.73;;;;;;;7.10;42.52;102828.84;5284336;33;34099;-88
2022/03/18 09:33:28;;;;;;;25.05;14.35;;;;;;;7.33;41.81;102820.22;5290636;33;32343;-88
2022/03/18 09:36:31;;;;;;;24.67;15.57;;;;;;;7.72;40.87;102829.38;5296159;33;34170;-89
2022/03/18 09:39:34;;;;;;;27.00;15.30;;;;;;;7.63;40.53;102827.28;5281695;33;33384;-89
2022/03/18 11:37:11;;;;;;;31.33;18.02;;;;;;;11.78;39.06;102813.09;4366930;31;20096;-89
2022/03/18 11:40:23;;;;;;;32.30;19.17;;;;;;;12.76;38.30;102808.59;5282935;33;34366;-89
2022/03/18 11:43:30;;;;;;;30.98;17.48;;;;;;;13.47;36.28;102798.69;5288927;33;33634;-88
2022/03/18 11:46:34;;;;;;;33.70;19.35;;;;;;;13.11;36.55;102798.25;5289923;33;34036;-89
2022/03/18 11:49:37;;;;;;;35.63;18.05;;;;;;;13.31;37.16;102796.50;5282803;33;34123;-89
2022/03/18 12:04:59;;;;;;;30.25;18.77;;;;;;;15.45;33.50;102790.13;1785492;28;20211;-89
2022/03/18 12:08:06;;;;;;;31.33;20.37;;;;;;;16.46;32.80;102783.53;5346375;28;34802;-89
2022/03/18 12:36:24;;;;;;;31.70;20.70;;;;;;;19.33;26.96;102743.22;3900557;31;20101;-89
2022/03/18 12:47:56;;;;;;;27.80;20.23;;;;;;;21.42;24.71;102729.94;954107;28;20385;-89
2022/03/18 12:51:00;;;;;;;29.67;20.95;;;;;;;20.99;24.59;102730.59;5296753;28;32185;-89
2022/03/18 12:54:06;;;;;;;27.45;20.00;;;;;;;21.11;24.51;102725.50;5294822;28;34150;-89
2022/03/18 13:01:44;;;;;;;29.67;20.45;;;;;;;21.86;23.05;102717.97;3164629;28;20125;-89
2022/03/18 13:08:53;;;;;;;37.63;21.42;;;;;;;23.14;21.49;102703.09;5158693;28;20125;-89
2022/03/18 13:11:58;;;;;;;29.63;19.95;;;;;;;22.40;22.07;102700.94;5300990;28;32219;-89
2022/03/18 13:15:16;;;;;;;27.95;21.20;;;;;;;22.67;21.57;102703.84;5321121;28;34524;-89
2022/03/18 13:18:19;;;;;;;30.88;22.67;;;;;;;21.79;23.08;102698.72;5331709;28;33497;-89
2022/03/18 13:25:44;;;;;;;35.45;23.33;;;;;;;21.82;23.25;102689.22;5276445;28;34081;-89
2022/03/18 13:32:51;;;;;;;27.83;21.80;;;;;;;22.21;22.96;102694.25;3700532;28;20108;-89
2022/03/18 13:35:56;;;;;;;30.23;23.23;;;;;;;21.09;23.21;102689.25;5309172;33;33582;-89
2022/03/18 13:39:05;;;;;;;29.45;22.62;;;;;;;22.06;22.45;102688.00;5309496;33;34137;-89
2022/03/18 13:42:21;;;;;;;27.10;20.77;;;;;;;21.92;22.39;102681.53;5306727;33;34870;-89
2022/03/18 13:45:48;;;;;;;28.27;21.17;;;;;;;22.04;21.96;102682.69;5273353;33;20077;-89
2022/03/18 13:52:44;;;;;;;27.17;21.05;;;;;;;20.17;24.23;102684.91;2428028;28;20105;-88
2022/03/18 13:55:47;;;;;;;29.27;21.90;;;;;;;20.18;24.22;102683.03;5327996;28;34015;-88
2022/03/18 13:58:50;;;;;;;27.48;21.48;;;;;;;20.37;24.33;102674.28;5309684;33;33838;-88
2022/03/18 14:02:07;;;;;;;30.70;21.55;;;;;;;20.14;24.42;102682.56;5309526;33;34782;-88
2022/03/18 14:05:20;;;;;;;28.83;22.52;;;;;;;19.66;25.03;102679.19;5309267;33;34196;-88
2022/03/18 14:08:31;;;;;;;26.85;21.10;;;;;;;18.29;26.80;102677.66;5308936;33;34188;-87
2022/03/18 14:15:17;;;;;;;31.00;21.90;;;;;;;19.37;25.69;102679.88;5310041;33;34394;-87
2022/03/18 14:18:23;;;;;;;28.65;20.52;;;;;;;19.92;24.55;102678.81;5317559;33;35665;-91
2022/03/18 14:21:25;;;;;;;27.27;20.62;;;;;;;17.96;26.51;102673.25;5317606;33;35200;-88
2022/03/18 14:24:29;;;;;;;28.30;20.55;;;;;;;17.11;27.86;102666.12;5320813;33;35448;-87
2022/03/18 14:27:32;;;;;;;27.50;20.52;;;;;;;16.01;28.88;102672.25;5319143;33;35228;-88
2022/03/18 14:30:35;;;;;;;26.77;19.80;;;;;;;15.48;29.74;102673.94;5295583;33;34243;-87
2022/03/18 14:33:39;;;;;;;29.00;20.70;;;;;;;15.05;31.12;102669.22;5322707;33;34572;-87
2022/03/18 14:36:42;;;;;;;27.50;20.98;;;;;;;14.51;31.48;102677.13;5312035;33;33923;-87
2022/03/18 14:39:45;;;;;;;26.95;20.30;;;;;;;14.09;30.98;102671.22;5310771;33;33994;-87
2022/03/18 14:42:49;;;;;;;28.55;21.10;;;;;;;13.28;32.68;102672.34;5320652;33;34398;-87
2022/03/18 14:45:52;;;;;;;28.83;20.70;;;;;;;12.90;33.32;102668.50;5310324;33;34311;-87
2022/03/18 14:48:55;;;;;;;31.12;21.25;;;;;;;12.44;34.60;102661.75;5310374;33;34039;-87
2022/03/18 14:51:58;;;;;;;27.52;18.25;;;;;;;12.48;34.12;102667.72;5306542;33;34121;-88
2022/03/18 14:58:25;;;;;;;28.25;19.12;;;;;;;11.97;33.33;102660.47;5265084;33;34568;-88
2022/03/18 15:01:28;;;;;;;25.90;18.23;;;;;;;11.65;34.02;102672.09;5265843;33;34051;-87
2022/03/18 15:04:32;;;;;;;26.70;18.55;;;;;;;11.39;34.24;102673.41;5296638;28;34088;-88
2022/03/18 15:07:35;;;;;;;26.08;17.70;;;;;;;11.17;34.49;102668.91;5358125;28;35024;-90
2022/03/18 15:10:38;;;;;;;26.65;18.23;;;;;;;11.08;34.86;102667.81;5309588;33;34132;-89
2022/03/18 15:13:46;;;;;;;29.05;19.50;;;;;;;11.05;36.55;102666.22;5309594;33;34221;-89
2022/03/18 15:16:49;;;;;;;27.73;19.73;;;;;;;10.96;35.72;102666.97;5309847;33;33945;-90
2022/03/18 15:19:52;;;;;;;29.10;19.12;;;;;;;10.96;36.04;102674.22;5309127;33;33577;-89
2022/03/18 15:22:55;;;;;;;28.40;19.05;;;;;;;10.60;36.71;102663.56;5309206;33;33749;-89
2022/03/18 15:25:59;;;;;;;29.90;19.58;;;;;;;10.61;37.04;102667.13;5306196;33;33499;-89
2022/03/18 15:29:02;;;;;;;28.25;18.48;;;;;;;10.38;37.44;102664.44;5308222;33;34271;-87
2022/03/18 15:32:05;;;;;;;27.58;18.65;;;;;;;10.30;37.84;102661.47;5306178;28;34024;-90
2022/03/18 15:35:10;;;;;;;32.70;20.08;;;;;;;10.26;38.17;102669.88;5377850;28;35450;-89
2022/03/18 15:38:13;;;;;;;29.42;19.92;;;;;;;10.03;38.49;102666.25;5324749;33;33917;-90
2022/03/18 15:41:16;;;;;;;32.30;19.60;;;;;;;9.98;38.69;102678.25;5322210;33;35464;-90
2022/03/18 15:44:20;;;;;;;29.45;19.20;;;;;;;9.94;38.97;102678.59;5311201;33;33823;-89
2022/03/18 15:47:23;;;;;;;29.83;20.17;;;;;;;10.02;38.72;102667.25;5317452;33;34131;-89
2022/03/18 15:50:26;;;;;;;31.42;19.10;;;;;;;9.92;38.27;102675.16;5311682;33;34280;-89
2022/03/18 15:53:30;;;;;;;30.45;20.25;;;;;;;9.81;38.92;102675.97;5307739;33;34061;-89
2022/03/18 15:56:38;;;;;;;31.25;18.98;;;;;;;9.73;38.89;102673.00;5307978;33;34264;-89
2022/03/18 15:59:41;;;;;;;30.95;20.37;;;;;;;9.61;39.75;102674.78;5291915;33;33970;-88
2022/03/18 16:02:44;;;;;;;32.22;18.70;;;;;;;9.51;40.28;102673.78;5290254;33;33898;-87
2022/03/18 16:05:49;;;;;;;31.48;19.95;;;;;;;9.47;40.41;102669.56;5289737;33;35305;-87
2022/03/18 16:08:59;;;;;;;30.73;19.37;;;;;;;9.41;40.25;102670.03;5290147;33;35282;-87
2022/03/18 16:12:03;;;;;;;32.60;20.02;;;;;;;9.31;40.85;102662.66;5290250;33;34570;-87
2022/03/18 16:15:08;;;;;;;30.40;18.83;;;;;;;9.19;42.00;102670.78;5290027;33;33689;-88
2022/03/18 16:18:13;;;;;;;31.95;20.23;;;;;;;9.04;42.39;102675.44;5290636;33;34185;-87
2022/03/18 16:21:16;;;;;;;34.75;20.65;;;;;;;8.91;43.61;102675.44;5290201;33;33983;-88
2022/03/18 16:24:20;;;;;;;27.90;18.92;;;;;;;8.84;42.97;102671.50;5345889;28;33884;-87
2022/03/18 16:27:24;;;;;;;31.42;19.60;;;;;;;8.73;42.26;102674.94;5327602;28;33926;-87
2022/03/18 16:30:27;;;;;;;29.05;18.35;;;;;;;8.56;43.51;102675.28;5308080;33;34473;-88
2022/03/18 16:33:30;;;;;;;31.75;20.37;;;;;;;8.51;43.91;102672.06;5309649;33;34872;-89
2022/03/18 16:36:33;;;;;;;30.50;19.33;;;;;;;8.37;44.13;102681.91;5307671;33;34149;-87
2022/03/18 16:39:36;;;;;;;29.27;18.87;;;;;;;8.23;44.93;102676.66;5307201;33;34634;-88
2022/03/18 16:42:43;;;;;;;36.78;20.25;;;;;;;8.04;44.95;102676.19;5307484;33;33858;-88
2022/03/18 16:49:23;;;;;;;36.35;19.23;;;;;;;7.79;46.84;102682.38;5308223;33;33966;-87
2022/03/18 16:52:29;;;;;;;32.25;20.67;;;;;;;7.64;46.89;102679.75;5328544;28;33968;-88
2022/03/18 16:55:33;;;;;;;32.72;21.15;;;;;;;7.48;46.80;102682.56;5308392;33;34670;-88
2022/03/18 16:58:37;;;;;;;33.70;21.17;;;;;;;7.40;46.65;102679.56;5328695;28;35613;-88
2022/03/18 17:01:50;;;;;;;31.17;19.05;;;;;;;7.31;47.00;102679.28;5333489;28;33724;-89
